Time;durP1;ratioP1;P1;durP2;ratioP2;P2;SDS_P1;SDS_P2;PMS_P1;PMS_P2;Temp;Humidity;BMP_temperature;BMP_pressure;BME280_temperature;BME280_humidity;BME280_pressure;Samples;Min_cycle;Max_cycle;Signal;HPM_P1;HPM_P2
2023/10/28 00:00:48;;;;;;;46.28;25.60;;;;;;;;;;4962919;29;20094;-81
2023/10/28 00:03:14;;;;;;;46.20;25.35;;;;;;;;;;4962617;29;20058;-81
2023/10/28 00:05:40;;;;;;;45.33;25.55;;;;;;;;;;4977935;28;20500;-81
2023/10/28 00:08:07;;;;;;;50.88;26.25;;;;;;;;;;4980171;28;20057;-81
2023/10/28 00:10:35;;;;;;;45.40;26.67;;;;;;;;;;4980882;28;20046;-81
2023/10/28 00:13:01;;;;;;;54.10;28.65;;;;;;;;;;4982709;28;20069;-81
2023/10/28 00:15:27;;;;;;;51.45;28.55;;;;;;;;;;4984944;28;20451;-81
2023/10/28 00:17:53;;;;;;;57.70;29.33;;;;;;;;;;4985423;28;20047;-81
2023/10/28 00:20:21;;;;;;;52.88;29.33;;;;;;;;;;4984261;28;20129;-81
2023/10/28 00:22:54;;;;;;;59.47;29.65;;;;;;;;;;4985655;28;20074;-81
2023/10/28 00:25:25;;;;;;;54.70;28.48;;;;;;;;;;4951206;29;20054;-81
2023/10/28 00:27:54;;;;;;;56.10;28.83;;;;;;;;;;4982854;28;20089;-81
2023/10/28 00:30:22;;;;;;;56.47;30.88;;;;;;;;;;4985759;28;20046;-81
2023/10/28 00:32:49;;;;;;;59.95;30.33;;;;;;;;;;4986751;28;20054;-81
2023/10/28 00:35:15;;;;;;;56.58;30.17;;;;;;;;;;4978355;28;20505;-81
2023/10/28 00:37:42;;;;;;;54.38;29.52;;;;;;;;;;4985062;28;20061;-80
2023/10/28 00:40:08;;;;;;;52.92;30.00;;;;;;;;;;4969273;28;20604;-80
2023/10/28 00:42:41;;;;;;;54.72;29.17;;;;;;;;;;4981863;28;20052;-81
2023/10/28 00:45:10;;;;;;;56.90;30.35;;;;;;;;;;4986873;28;20085;-81
2023/10/28 00:47:38;;;;;;;58.78;30.35;;;;;;;;;;4985726;28;20125;-81
2023/10/28 00:50:12;;;;;;;51.90;29.77;;;;;;;;;;4969912;28;20053;-81
2023/10/28 00:52:39;;;;;;;55.45;30.02;;;;;;;;;;4985942;28;20291;-82
2023/10/28 00:55:09;;;;;;;68.07;31.85;;;;;;;;;;4987602;28;20090;-82
2023/10/28 00:57:35;;;;;;;52.80;30.05;;;;;;;;;;4986033;28;20051;-80
2023/10/28 01:00:02;;;;;;;64.15;31.70;;;;;;;;;;4986925;28;20069;-81
2023/10/28 01:02:28;;;;;;;62.92;30.80;;;;;;;;;;4986707;28;20572;-82
2023/10/28 01:04:55;;;;;;;62.92;30.38;;;;;;;;;;4985555;28;20054;-81
2023/10/28 01:07:21;;;;;;;54.47;29.38;;;;;;;;;;4987323;28;20072;-81
2023/10/28 01:09:48;;;;;;;58.05;29.65;;;;;;;;;;4986947;28;20057;-81
2023/10/28 01:12:15;;;;;;;67.03;32.25;;;;;;;;;;4986865;28;20073;-81
2023/10/28 01:14:42;;;;;;;71.32;32.53;;;;;;;;;;4985471;28;20053;-81
2023/10/28 01:17:13;;;;;;;63.45;32.03;;;;;;;;;;4986819;28;20129;-81
2023/10/28 01:19:39;;;;;;;65.50;31.45;;;;;;;;;;4986708;28;20049;-82
2023/10/28 01:22:05;;;;;;;72.63;33.05;;;;;;;;;;4985974;28;20039;-81
2023/10/28 01:24:32;;;;;;;70.22;33.28;;;;;;;;;;4984338;28;20053;-81
2023/10/28 01:27:02;;;;;;;66.20;33.38;;;;;;;;;;4981655;28;20094;-82
2023/10/28 01:29:28;;;;;;;69.22;33.17;;;;;;;;;;4985660;28;20046;-81
2023/10/28 01:31:55;;;;;;;70.30;33.38;;;;;;;;;;4985171;28;20047;-82
2023/10/28 01:34:22;;;;;;;70.25;33.15;;;;;;;;;;4966414;28;20047;-81
2023/10/28 01:36:49;;;;;;;64.50;33.45;;;;;;;;;;4979855;28;20066;-81
2023/10/28 01:39:18;;;;;;;72.40;33.17;;;;;;;;;;4984523;28;20046;-81
2023/10/28 01:41:44;;;;;;;62.00;33.33;;;;;;;;;;4985519;28;20046;-81
2023/10/28 01:44:11;;;;;;;81.28;35.42;;;;;;;;;;4984259;28;20053;-81
2023/10/28 01:46:37;;;;;;;68.72;34.22;;;;;;;;;;4980791;28;20054;-82
2023/10/28 01:49:04;;;;;;;72.53;33.05;;;;;;;;;;4984443;28;20054;-81
2023/10/28 01:51:30;;;;;;;77.68;33.47;;;;;;;;;;4982057;28;20070;-81
2023/10/28 01:53:56;;;;;;;80.78;33.25;;;;;;;;;;4984044;28;20047;-82
2023/10/28 01:56:28;;;;;;;64.32;31.55;;;;;;;;;;4984689;28;20047;-82
2023/10/28 01:58:54;;;;;;;65.50;32.85;;;;;;;;;;4985587;28;20420;-81
2023/10/28 02:01:25;;;;;;;62.25;31.55;;;;;;;;;;4986269;28;20050;-81
2023/10/28 02:03:51;;;;;;;65.10;32.30;;;;;;;;;;4985202;28;20166;-81
2023/10/28 02:06:17;;;;;;;60.17;31.15;;;;;;;;;;4986608;28;20050;-81
2023/10/28 02:08:43;;;;;;;57.03;31.55;;;;;;;;;;4984596;28;20521;-82
2023/10/28 02:11:09;;;;;;;63.13;31.25;;;;;;;;;;4976667;28;20134;-81
2023/10/28 02:13:35;;;;;;;57.33;30.55;;;;;;;;;;4980771;28;20071;-81
2023/10/28 02:16:01;;;;;;;61.45;31.42;;;;;;;;;;4986048;28;20039;-81
2023/10/28 02:18:28;;;;;;;63.42;30.30;;;;;;;;;;4985980;28;20043;-81
2023/10/28 02:20:56;;;;;;;57.28;31.33;;;;;;;;;;4986506;28;20042;-80
2023/10/28 02:23:22;;;;;;;59.42;30.98;;;;;;;;;;4985729;28;20061;-81
2023/10/28 02:25:48;;;;;;;56.45;30.27;;;;;;;;;;4986070;28;20050;-81
2023/10/28 02:28:14;;;;;;;60.13;30.38;;;;;;;;;;4985431;28;20054;-81
2023/10/28 02:30:40;;;;;;;61.72;30.08;;;;;;;;;;4985403;28;20047;-81
2023/10/28 02:33:07;;;;;;;62.28;30.70;;;;;;;;;;4984411;28;20047;-80
2023/10/28 02:35:34;;;;;;;56.42;28.77;;;;;;;;;;4986183;28;20059;-81
2023/10/28 02:38:00;;;;;;;63.97;29.45;;;;;;;;;;4981462;28;20050;-81
2023/10/28 02:40:26;;;;;;;62.97;29.00;;;;;;;;;;4984434;28;20054;-81
2023/10/28 02:42:52;;;;;;;58.15;29.45;;;;;;;;;;4985569;28;20050;-81
2023/10/28 02:45:18;;;;;;;65.13;28.65;;;;;;;;;;4985315;28;20042;-81
2023/10/28 02:47:44;;;;;;;53.65;26.75;;;;;;;;;;4983819;28;20102;-81
2023/10/28 02:50:11;;;;;;;58.47;28.08;;;;;;;;;;4985391;28;20038;-81
2023/10/28 02:52:37;;;;;;;58.33;27.77;;;;;;;;;;4977374;28;20055;-81
2023/10/28 02:55:05;;;;;;;59.05;27.23;;;;;;;;;;4972410;28;20412;-81
2023/10/28 02:57:32;;;;;;;63.35;29.35;;;;;;;;;;4984866;28;20051;-81
2023/10/28 02:59:58;;;;;;;51.63;27.27;;;;;;;;;;4986272;28;20167;-81
2023/10/28 03:02:24;;;;;;;55.50;26.70;;;;;;;;;;4988503;28;20085;-81
2023/10/28 03:04:50;;;;;;;59.88;28.45;;;;;;;;;;4972639;28;20054;-81
2023/10/28 03:07:16;;;;;;;56.03;27.98;;;;;;;;;;4987907;28;20039;-81
2023/10/28 03:09:42;;;;;;;58.10;27.40;;;;;;;;;;4972246;28;20051;-82
2023/10/28 03:12:08;;;;;;;56.75;28.33;;;;;;;;;;4989169;28;20050;-81
2023/10/28 03:14:34;;;;;;;64.07;28.45;;;;;;;;;;4986834;28;20042;-82
2023/10/28 03:17:00;;;;;;;60.72;27.90;;;;;;;;;;4988449;28;20127;-81
2023/10/28 03:19:27;;;;;;;53.78;27.88;;;;;;;;;;4987132;28;20119;-82
2023/10/28 03:21:53;;;;;;;63.50;28.48;;;;;;;;;;4988361;28;20050;-81
2023/10/28 03:24:19;;;;;;;56.65;27.65;;;;;;;;;;4987346;28;20050;-81
2023/10/28 03:26:45;;;;;;;45.10;24.77;;;;;;;;;;4987153;28;20101;-81
2023/10/28 03:29:11;;;;;;;61.30;28.65;;;;;;;;;;4987057;28;20047;-81
2023/10/28 03:31:38;;;;;;;61.97;27.88;;;;;;;;;;4986741;28;20069;-81
2023/10/28 03:34:05;;;;;;;55.67;28.20;;;;;;;;;;4987478;28;20057;-81
2023/10/28 03:36:31;;;;;;;53.97;28.60;;;;;;;;;;4985702;28;20058;-81
2023/10/28 03:39:00;;;;;;;48.35;26.40;;;;;;;;;;4986417;28;20496;-81
2023/10/28 03:41:26;;;;;;;48.70;27.13;;;;;;;;;;4986947;28;20043;-81
2023/10/28 03:43:52;;;;;;;50.58;26.05;;;;;;;;;;4987665;28;20132;-81
2023/10/28 03:46:18;;;;;;;46.58;25.70;;;;;;;;;;4986707;28;20500;-81
2023/10/28 03:48:45;;;;;;;53.15;26.90;;;;;;;;;;4981695;28;20046;-81
2023/10/28 03:51:11;;;;;;;48.83;24.92;;;;;;;;;;4973754;28;20046;-81
2023/10/28 03:53:37;;;;;;;49.35;26.27;;;;;;;;;;4987077;28;20070;-81
2023/10/28 03:56:05;;;;;;;52.17;27.10;;;;;;;;;;4988338;28;20126;-81
2023/10/28 03:58:32;;;;;;;51.17;27.17;;;;;;;;;;4986962;28;20050;-81
2023/10/28 04:00:59;;;;;;;54.92;27.80;;;;;;;;;;4987911;28;20046;-81
2023/10/28 04:03:25;;;;;;;50.70;26.60;;;;;;;;;;4988521;28;20047;-81
2023/10/28 04:05:54;;;;;;;40.67;24.40;;;;;;;;;;4987134;28;20050;-81
2023/10/28 04:08:22;;;;;;;51.63;26.50;;;;;;;;;;4987285;28;20042;-81
2023/10/28 04:10:48;;;;;;;47.15;26.02;;;;;;;;;;4972232;28;20051;-81
2023/10/28 04:13:14;;;;;;;50.25;26.15;;;;;;;;;;4968047;29;20055;-81
2023/10/28 04:15:40;;;;;;;45.42;26.05;;;;;;;;;;4985492;28;20130;-81
2023/10/28 04:18:07;;;;;;;52.28;26.95;;;;;;;;;;4988505;28;20408;-81
2023/10/28 04:20:34;;;;;;;48.13;26.08;;;;;;;;;;4987901;28;20105;-80
2023/10/28 04:23:01;;;;;;;47.53;25.55;;;;;;;;;;4988248;28;20559;-81
2023/10/28 04:25:27;;;;;;;47.63;25.58;;;;;;;;;;4986460;28;20437;-81
2023/10/28 04:27:53;;;;;;;52.35;26.23;;;;;;;;;;4980725;28;20046;-81
2023/10/28 04:30:19;;;;;;;53.25;27.50;;;;;;;;;;4987304;28;20039;-81
2023/10/28 04:32:45;;;;;;;55.28;26.40;;;;;;;;;;4966970;29;20086;-81
2023/10/28 04:35:11;;;;;;;43.85;24.60;;;;;;;;;;4967264;28;20047;-81
2023/10/28 04:37:37;;;;;;;47.22;25.80;;;;;;;;;;4983292;28;20496;-81
2023/10/28 04:40:05;;;;;;;49.78;25.63;;;;;;;;;;4985438;28;20516;-81
2023/10/28 04:42:31;;;;;;;50.42;24.42;;;;;;;;;;4987383;28;20057;-81
2023/10/28 04:44:57;;;;;;;48.40;25.63;;;;;;;;;;4984847;28;20053;-81
2023/10/28 04:47:27;;;;;;;50.33;24.27;;;;;;;;;;4984586;28;20400;-81
2023/10/28 04:49:53;;;;;;;44.55;23.33;;;;;;;;;;4986305;28;20035;-81
2023/10/28 04:52:20;;;;;;;40.17;23.27;;;;;;;;;;4979687;28;20050;-80
2023/10/28 04:54:46;;;;;;;44.60;24.70;;;;;;;;;;4985598;28;20049;-81
2023/10/28 04:57:12;;;;;;;48.97;24.73;;;;;;;;;;4983075;28;20492;-81
2023/10/28 04:59:39;;;;;;;43.95;23.67;;;;;;;;;;4965374;28;20122;-81
2023/10/28 05:02:06;;;;;;;42.33;23.00;;;;;;;;;;4974605;28;20400;-80
2023/10/28 05:04:32;;;;;;;40.42;24.25;;;;;;;;;;4983071;28;20058;-80
2023/10/28 05:06:58;;;;;;;47.67;24.77;;;;;;;;;;4986306;28;20061;-80
2023/10/28 05:09:24;;;;;;;40.42;20.73;;;;;;;;;;4985545;28;20074;-81
2023/10/28 05:11:54;;;;;;;42.80;22.85;;;;;;;;;;4985525;28;20179;-81
2023/10/28 05:14:21;;;;;;;47.55;23.17;;;;;;;;;;4968884;28;20049;-80
2023/10/28 05:16:47;;;;;;;48.53;23.85;;;;;;;;;;4983788;28;20047;-80
2023/10/28 05:19:13;;;;;;;44.88;23.30;;;;;;;;;;4984766;28;20054;-81
2023/10/28 05:21:39;;;;;;;42.35;22.88;;;;;;;;;;4981551;28;20054;-81
2023/10/28 05:24:05;;;;;;;44.63;22.95;;;;;;;;;;4972268;28;20125;-80
2023/10/28 05:26:32;;;;;;;40.58;21.38;;;;;;;;;;4986196;28;20050;-81
2023/10/28 05:28:58;;;;;;;36.20;21.05;;;;;;;;;;4984894;28;20051;-81
2023/10/28 05:31:27;;;;;;;40.58;21.25;;;;;;;;;;4985114;28;20086;-80
2023/10/28 05:33:54;;;;;;;41.67;22.08;;;;;;;;;;4983850;28;20081;-80
2023/10/28 05:36:20;;;;;;;35.78;21.02;;;;;;;;;;4985108;28;20043;-80
2023/10/28 05:38:46;;;;;;;40.22;21.42;;;;;;;;;;4983576;28;20050;-81
2023/10/28 05:41:12;;;;;;;36.50;20.48;;;;;;;;;;4984939;28;20049;-81
2023/10/28 05:43:38;;;;;;;37.67;21.35;;;;;;;;;;4985142;28;20043;-80
2023/10/28 05:46:05;;;;;;;33.65;19.80;;;;;;;;;;4985484;28;20051;-81
2023/10/28 05:48:32;;;;;;;38.40;21.33;;;;;;;;;;4985031;28;20058;-81
2023/10/28 05:50:58;;;;;;;38.90;21.30;;;;;;;;;;4965056;29;20058;-82
2023/10/28 05:53:24;;;;;;;37.85;19.63;;;;;;;;;;4965707;28;20058;-81
2023/10/28 05:55:52;;;;;;;34.47;19.50;;;;;;;;;;4985932;28;20085;-82
2023/10/28 05:58:18;;;;;;;36.55;19.38;;;;;;;;;;4985831;28;20497;-82
2023/10/28 06:00:44;;;;;;;32.55;17.85;;;;;;;;;;4985077;28;20081;-82
2023/10/28 06:03:12;;;;;;;34.92;17.95;;;;;;;;;;4985453;28;20416;-82
2023/10/28 06:05:38;;;;;;;34.38;18.73;;;;;;;;;;4965842;28;20048;-80
2023/10/28 06:08:04;;;;;;;35.53;17.52;;;;;;;;;;4965990;28;20513;-80
2023/10/28 06:10:30;;;;;;;26.33;15.75;;;;;;;;;;4983866;28;20054;-81
2023/10/28 06:12:57;;;;;;;28.85;16.13;;;;;;;;;;4982983;28;20047;-80
2023/10/28 06:15:24;;;;;;;25.58;15.95;;;;;;;;;;4983462;28;20042;-81
2023/10/28 06:17:50;;;;;;;26.27;14.30;;;;;;;;;;4985302;28;20058;-81
2023/10/28 06:20:17;;;;;;;28.58;15.02;;;;;;;;;;4983626;28;20053;-81
2023/10/28 06:22:43;;;;;;;31.58;14.90;;;;;;;;;;4984158;28;20489;-81
2023/10/28 06:25:09;;;;;;;25.88;13.95;;;;;;;;;;4981138;28;20496;-81
2023/10/28 06:27:35;;;;;;;26.08;14.25;;;;;;;;;;4965699;28;20460;-81
2023/10/28 06:30:01;;;;;;;21.45;13.07;;;;;;;;;;4969588;28;20434;-81
2023/10/28 06:32:27;;;;;;;23.48;12.43;;;;;;;;;;4948442;28;20075;-82
2023/10/28 06:34:54;;;;;;;27.42;14.07;;;;;;;;;;4983872;28;20462;-81
2023/10/28 06:37:20;;;;;;;23.52;13.40;;;;;;;;;;4985443;28;20050;-81
2023/10/28 06:39:47;;;;;;;26.30;14.45;;;;;;;;;;4985213;28;20098;-80
2023/10/28 06:42:13;;;;;;;24.38;13.90;;;;;;;;;;4986048;28;20043;-81
2023/10/28 06:44:39;;;;;;;22.65;13.55;;;;;;;;;;4987504;28;20055;-81
2023/10/28 06:47:06;;;;;;;23.00;13.85;;;;;;;;;;4987451;28;20051;-80
2023/10/28 06:49:32;;;;;;;27.40;14.65;;;;;;;;;;4985483;28;20481;-80
2023/10/28 06:51:58;;;;;;;21.83;14.70;;;;;;;;;;4986762;28;20387;-81
2023/10/28 06:54:24;;;;;;;20.17;13.18;;;;;;;;;;4987488;28;20106;-81
2023/10/28 06:56:51;;;;;;;19.52;12.00;;;;;;;;;;4986098;28;20055;-81
2023/10/28 06:59:17;;;;;;;19.25;12.35;;;;;;;;;;4986889;28;20062;-82
2023/10/28 07:01:44;;;;;;;21.33;12.52;;;;;;;;;;4986226;28;20217;-81
2023/10/28 07:04:13;;;;;;;18.50;11.68;;;;;;;;;;4987128;28;20054;-81
2023/10/28 07:06:39;;;;;;;21.10;11.43;;;;;;;;;;4986331;28;20500;-81
2023/10/28 07:09:05;;;;;;;18.20;10.77;;;;;;;;;;4983706;28;20129;-81
2023/10/28 07:11:32;;;;;;;17.42;10.20;;;;;;;;;;4986297;28;20043;-81
2023/10/28 07:13:58;;;;;;;19.23;10.52;;;;;;;;;;4977857;28;20044;-81
2023/10/28 07:16:26;;;;;;;17.98;10.05;;;;;;;;;;4986653;28;20058;-81
2023/10/28 07:18:52;;;;;;;16.55;9.77;;;;;;;;;;4985976;28;20042;-81
2023/10/28 07:21:18;;;;;;;23.27;12.40;;;;;;;;;;4996780;28;20129;-81
2023/10/28 07:23:44;;;;;;;13.85;9.45;;;;;;;;;;5003456;28;20046;-81
2023/10/28 07:26:12;;;;;;;20.33;10.20;;;;;;;;;;4986355;28;20059;-82
2023/10/28 07:28:39;;;;;;;14.05;9.32;;;;;;;;;;4986426;28;20055;-81
2023/10/28 07:31:06;;;;;;;15.70;9.35;;;;;;;;;;4986246;28;20074;-81
2023/10/28 07:33:32;;;;;;;14.85;9.00;;;;;;;;;;4987387;28;20043;-81
2023/10/28 07:36:02;;;;;;;15.25;8.23;;;;;;;;;;4968173;28;20066;-81
2023/10/28 07:38:28;;;;;;;17.70;8.18;;;;;;;;;;4967151;28;20059;-81
2023/10/28 07:40:55;;;;;;;13.63;8.88;;;;;;;;;;4968794;28;20224;-82
2023/10/28 07:43:21;;;;;;;15.60;8.52;;;;;;;;;;4986662;28;20054;-81
2023/10/28 07:45:47;;;;;;;14.43;8.23;;;;;;;;;;4984878;28;20047;-81
2023/10/28 07:48:14;;;;;;;18.00;7.65;;;;;;;;;;4987641;28;20078;-81
2023/10/28 07:50:40;;;;;;;12.35;6.38;;;;;;;;;;4986415;28;20054;-81
2023/10/28 07:53:07;;;;;;;13.35;6.57;;;;;;;;;;4985743;28;20066;-81
2023/10/28 07:55:33;;;;;;;14.02;7.25;;;;;;;;;;4983579;28;20113;-81
2023/10/28 07:57:59;;;;;;;15.48;7.10;;;;;;;;;;4983609;28;20049;-81
2023/10/28 08:00:26;;;;;;;12.02;6.20;;;;;;;;;;4984226;28;20070;-81
2023/10/28 08:02:55;;;;;;;12.75;6.13;;;;;;;;;;4980571;28;20054;-81
2023/10/28 08:05:21;;;;;;;12.93;5.93;;;;;;;;;;4982379;28;20153;-81
2023/10/28 08:07:49;;;;;;;13.27;6.32;;;;;;;;;;4986582;28;20078;-81
2023/10/28 08:10:17;;;;;;;15.45;7.40;;;;;;;;;;4965476;28;20042;-82
2023/10/28 08:12:43;;;;;;;10.70;5.57;;;;;;;;;;4983750;28;20058;-81
2023/10/28 08:15:09;;;;;;;12.88;5.75;;;;;;;;;;4984259;28;20054;-82
2023/10/28 08:17:35;;;;;;;12.63;6.13;;;;;;;;;;4984571;28;20122;-81
2023/10/28 08:20:02;;;;;;;13.02;5.90;;;;;;;;;;4977221;28;20082;-82
2023/10/28 08:22:28;;;;;;;13.00;7.78;;;;;;;;;;4977797;28;20042;-82
2023/10/28 08:24:54;;;;;;;13.02;5.80;;;;;;;;;;4982599;28;20389;-83
2023/10/28 08:27:20;;;;;;;12.82;5.47;;;;;;;;;;4985938;28;20057;-82
2023/10/28 08:29:48;;;;;;;10.73;5.43;;;;;;;;;;4982221;28;20051;-82
2023/10/28 08:32:17;;;;;;;8.40;5.10;;;;;;;;;;4983539;28;20078;-80
2023/10/28 08:34:44;;;;;;;11.70;5.68;;;;;;;;;;4984242;28;20078;-79
2023/10/28 08:37:11;;;;;;;9.48;5.70;;;;;;;;;;4984169;28;20061;-79
2023/10/28 08:39:37;;;;;;;12.60;5.18;;;;;;;;;;4985606;28;20054;-81
2023/10/28 08:42:05;;;;;;;12.52;5.82;;;;;;;;;;4984429;28;20476;-81
2023/10/28 08:44:37;;;;;;;13.15;6.38;;;;;;;;;;4988142;28;20055;-80
2023/10/28 08:47:06;;;;;;;13.38;6.05;;;;;;;;;;4983977;28;20046;-81
2023/10/28 08:49:34;;;;;;;14.65;6.07;;;;;;;;;;4984464;28;20051;-82
2023/10/28 08:52:01;;;;;;;12.18;6.07;;;;;;;;;;4966462;28;20466;-81
2023/10/28 08:54:28;;;;;;;14.23;5.97;;;;;;;;;;4987191;28;20125;-81
2023/10/28 08:56:59;;;;;;;14.45;5.90;;;;;;;;;;4986139;28;20042;-82
2023/10/28 08:59:27;;;;;;;12.45;5.78;;;;;;;;;;4959793;28;20385;-81
2023/10/28 09:01:53;;;;;;;15.05;5.90;;;;;;;;;;4986161;28;20104;-81
2023/10/28 09:04:21;;;;;;;10.68;5.35;;;;;;;;;;4982615;28;20424;-82
2023/10/28 09:06:53;;;;;;;11.90;4.85;;;;;;;;;;4982144;28;20078;-82
2023/10/28 09:09:21;;;;;;;8.98;4.57;;;;;;;;;;4986842;28;20065;-82
2023/10/28 09:11:51;;;;;;;10.23;4.38;;;;;;;;;;4985697;28;20053;-82
2023/10/28 09:14:17;;;;;;;14.48;5.10;;;;;;;;;;4987206;28;20047;-82
2023/10/28 09:16:43;;;;;;;10.57;4.60;;;;;;;;;;4986454;28;20535;-82
2023/10/28 09:19:20;;;;;;;11.18;4.93;;;;;;;;;;4969295;28;20110;-82
2023/10/28 09:21:48;;;;;;;14.23;4.35;;;;;;;;;;4986555;28;20126;-83
2023/10/28 09:24:14;;;;;;;9.00;4.60;;;;;;;;;;4985296;28;20050;-81
2023/10/28 09:26:40;;;;;;;11.50;4.97;;;;;;;;;;4984691;28;20070;-81
2023/10/28 09:29:06;;;;;;;8.48;4.88;;;;;;;;;;4985757;28;20047;-82
2023/10/28 09:31:33;;;;;;;10.88;5.10;;;;;;;;;;4982974;28;20050;-81
2023/10/28 09:34:00;;;;;;;9.63;4.95;;;;;;;;;;4984823;28;20043;-81
2023/10/28 09:36:27;;;;;;;9.18;4.25;;;;;;;;;;4985328;28;20182;-81
2023/10/28 09:38:57;;;;;;;11.73;5.20;;;;;;;;;;4985971;28;20047;-81
2023/10/28 09:41:24;;;;;;;11.13;4.47;;;;;;;;;;4986755;28;20504;-81
2023/10/28 09:43:50;;;;;;;10.95;4.90;;;;;;;;;;4986705;28;20493;-83
2023/10/28 09:46:26;;;;;;;10.80;5.30;;;;;;;;;;4986462;28;20050;-83
2023/10/28 09:48:56;;;;;;;9.82;4.82;;;;;;;;;;4970153;28;20141;-83
2023/10/28 09:51:23;;;;;;;10.80;5.20;;;;;;;;;;4985915;28;20428;-83
2023/10/28 09:53:53;;;;;;;13.15;4.93;;;;;;;;;;4978820;28;20047;-83
2023/10/28 09:56:20;;;;;;;14.48;5.30;;;;;;;;;;4976417;28;20096;-83
2023/10/28 09:58:52;;;;;;;10.07;4.95;;;;;;;;;;4984828;28;20051;-83
2023/10/28 10:01:37;;;;;;;12.77;5.32;;;;;;;;;;4986016;28;20047;-83
2023/10/28 10:04:04;;;;;;;12.32;5.40;;;;;;;;;;4986558;28;20051;-82
2023/10/28 10:06:30;;;;;;;12.55;5.00;;;;;;;;;;4985455;28;20050;-84
2023/10/28 10:08:56;;;;;;;13.48;5.43;;;;;;;;;;4986494;28;20074;-83
2023/10/28 10:11:22;;;;;;;12.82;5.40;;;;;;;;;;4972595;28;20197;-82
2023/10/28 10:13:49;;;;;;;9.82;5.22;;;;;;;;;;4985496;28;20046;-82
2023/10/28 10:16:27;;;;;;;12.50;5.00;;;;;;;;;;4972118;28;20039;-82
2023/10/28 10:18:55;;;;;;;10.98;4.70;;;;;;;;;;4977048;28;20054;-82
2023/10/28 10:21:22;;;;;;;10.70;4.97;;;;;;;;;;5007673;28;20392;-81
2023/10/28 10:23:52;;;;;;;9.85;4.43;;;;;;;;;;5009050;28;20392;-81
2023/10/28 10:26:29;;;;;;;12.15;4.90;;;;;;;;;;4971072;28;20541;-81
2023/10/28 10:28:58;;;;;;;11.52;4.88;;;;;;;;;;4974470;28;20050;-82
2023/10/28 10:31:28;;;;;;;11.45;5.20;;;;;;;;;;4981215;28;20043;-82
2023/10/28 10:34:09;;;;;;;11.48;4.88;;;;;;;;;;4987126;28;20050;-82
2023/10/28 10:36:40;;;;;;;11.90;5.18;;;;;;;;;;4989448;28;20070;-83
2023/10/28 10:39:14;;;;;;;12.75;5.00;;;;;;;;;;4990087;28;20054;-82
2023/10/28 10:41:41;;;;;;;11.27;5.38;;;;;;;;;;4990080;28;20064;-82
2023/10/28 10:44:32;;;;;;;11.93;4.72;;;;;;;;;;4989766;28;20042;-82
2023/10/28 10:46:59;;;;;;;;;;;;;;;;;;4989827;28;20105;-82
2023/10/28 10:49:26;;;;;;;11.50;4.80;;;;;;;;;;4989629;28;19921;-82
2023/10/28 10:51:52;;;;;;;13.50;5.35;;;;;;;;;;4989246;28;20050;-82
2023/10/28 10:54:18;;;;;;;11.63;5.28;;;;;;;;;;4989571;28;20054;-83
2023/10/28 10:56:45;;;;;;;13.05;5.50;;;;;;;;;;4989904;28;20039;-82
2023/10/28 10:59:11;;;;;;;10.55;5.35;;;;;;;;;;4989123;28;20051;-82
2023/10/28 11:01:38;;;;;;;14.13;5.25;;;;;;;;;;4989417;28;20073;-82
2023/10/28 11:04:05;;;;;;;11.95;5.25;;;;;;;;;;4984499;28;20046;-82
2023/10/28 11:06:31;;;;;;;11.23;5.25;;;;;;;;;;4989484;28;20101;-82
2023/10/28 11:08:57;;;;;;;13.25;5.85;;;;;;;;;;4963572;28;20075;-82
2023/10/28 11:11:25;;;;;;;14.32;5.32;;;;;;;;;;4969953;29;20058;-81
2023/10/28 11:13:51;;;;;;;16.15;5.90;;;;;;;;;;4986569;28;20054;-82
2023/10/28 11:16:27;;;;;;;11.18;5.43;;;;;;;;;;4985153;28;20077;-82
2023/10/28 11:18:57;;;;;;;13.27;5.35;;;;;;;;;;4989013;28;20047;-82
2023/10/28 11:21:26;;;;;;;9.82;5.00;;;;;;;;;;4982510;28;20042;-81
2023/10/28 11:23:52;;;;;;;13.30;5.63;;;;;;;;;;4987609;28;20050;-81
2023/10/28 11:26:19;;;;;;;12.02;5.10;;;;;;;;;;4989026;28;20124;-82
2023/10/28 11:28:45;;;;;;;11.05;4.88;;;;;;;;;;4989293;28;20057;-81
2023/10/28 11:31:12;;;;;;;13.38;5.43;;;;;;;;;;4988544;28;20094;-82
2023/10/28 11:33:38;;;;;;;9.30;4.85;;;;;;;;;;4977685;28;20046;-82
2023/10/28 11:36:04;;;;;;;12.65;4.88;;;;;;;;;;4988300;28;20055;-82
2023/10/28 11:38:34;;;;;;;9.63;4.60;;;;;;;;;;5000157;28;20050;-81
2023/10/28 11:41:08;;;;;;;10.55;4.53;;;;;;;;;;4994021;28;20043;-81
2023/10/28 11:43:37;;;;;;;8.40;4.53;;;;;;;;;;4987843;28;20055;-82
2023/10/28 11:46:04;;;;;;;12.50;4.40;;;;;;;;;;4979502;28;20062;-81
2023/10/28 11:48:34;;;;;;;9.13;4.18;;;;;;;;;;4985330;28;20247;-82
2023/10/28 11:51:00;;;;;;;10.60;4.47;;;;;;;;;;4973370;28;20051;-81
2023/10/28 11:53:27;;;;;;;11.10;4.40;;;;;;;;;;4973208;28;20047;-82
2023/10/28 11:55:54;;;;;;;9.20;4.43;;;;;;;;;;4982666;28;20047;-82
2023/10/28 11:58:23;;;;;;;11.55;4.25;;;;;;;;;;4963945;28;20058;-82
2023/10/28 12:00:52;;;;;;;9.82;3.90;;;;;;;;;;4982495;28;20055;-82
2023/10/28 12:03:18;;;;;;;8.80;4.15;;;;;;;;;;4985332;28;20058;-77
2023/10/28 12:05:44;;;;;;;11.05;4.03;;;;;;;;;;4974733;28;20054;-82
2023/10/28 12:08:11;;;;;;;11.27;4.30;;;;;;;;;;4981882;28;20057;-82
2023/10/28 12:10:43;;;;;;;10.57;4.00;;;;;;;;;;4978220;28;20057;-83
2023/10/28 12:13:09;;;;;;;9.60;4.10;;;;;;;;;;4982376;28;20047;-81
2023/10/28 12:15:35;;;;;;;10.90;3.50;;;;;;;;;;4986143;28;20066;-81
2023/10/28 12:18:02;;;;;;;10.20;4.47;;;;;;;;;;4978961;28;20048;-82
2023/10/28 12:20:28;;;;;;;9.93;3.75;;;;;;;;;;4982549;28;20500;-82
2023/10/28 12:22:59;;;;;;;9.32;3.50;;;;;;;;;;4980169;28;20039;-83
2023/10/28 12:25:26;;;;;;;9.15;3.38;;;;;;;;;;4979107;28;20050;-82
2023/10/28 12:27:52;;;;;;;8.30;3.40;;;;;;;;;;4975660;28;20047;-82
2023/10/28 12:30:18;;;;;;;8.45;3.15;;;;;;;;;;4985827;28;20080;-82
2023/10/28 12:32:45;;;;;;;6.97;3.40;;;;;;;;;;4973289;28;20051;-82
2023/10/28 12:35:12;;;;;;;9.65;3.10;;;;;;;;;;4985306;28;20035;-82
2023/10/28 12:37:38;;;;;;;8.07;3.20;;;;;;;;;;4974698;28;20042;-82
2023/10/28 12:40:05;;;;;;;7.85;3.25;;;;;;;;;;4986306;28;20061;-82
2023/10/28 12:42:34;;;;;;;12.15;3.63;;;;;;;;;;4987727;28;20050;-82
2023/10/28 12:45:00;;;;;;;12.32;3.42;;;;;;;;;;4986524;28;20074;-82
2023/10/28 12:47:26;;;;;;;8.95;3.10;;;;;;;;;;4985610;28;20050;-81
2023/10/28 12:49:52;;;;;;;10.88;3.28;;;;;;;;;;4985573;28;20061;-83
2023/10/28 12:52:20;;;;;;;8.15;4.32;;;;;;;;;;4981029;28;20051;-82
2023/10/28 12:54:46;;;;;;;8.82;3.60;;;;;;;;;;4984069;28;20045;-82
2023/10/28 12:57:16;;;;;;;11.10;3.38;;;;;;;;;;4981936;28;20044;-82
2023/10/28 12:59:46;;;;;;;9.52;3.50;;;;;;;;;;4983551;28;20086;-83
2023/10/28 13:02:12;;;;;;;9.13;3.17;;;;;;;;;;4979035;28;20073;-82
2023/10/28 13:04:38;;;;;;;8.85;3.30;;;;;;;;;;4982819;28;20047;-82
2023/10/28 13:07:04;;;;;;;9.15;3.63;;;;;;;;;;4990823;28;20046;-82
2023/10/28 13:09:30;;;;;;;8.57;3.40;;;;;;;;;;4983070;28;20054;-82
2023/10/28 13:11:59;;;;;;;10.00;3.25;;;;;;;;;;4984680;28;20082;-82
2023/10/28 13:14:26;;;;;;;7.80;2.80;;;;;;;;;;4971794;28;20114;-81
2023/10/28 13:16:53;;;;;;;9.07;3.17;;;;;;;;;;4981124;28;20756;-81
2023/10/28 13:19:19;;;;;;;9.57;3.60;;;;;;;;;;4982346;28;20043;-80
2023/10/28 13:21:45;;;;;;;9.63;3.05;;;;;;;;;;4980149;28;20046;-81
2023/10/28 13:24:11;;;;;;;8.82;2.75;;;;;;;;;;4982800;28;20047;-81
2023/10/28 13:26:38;;;;;;;7.97;2.53;;;;;;;;;;4982724;28;20366;-81
2023/10/28 13:29:04;;;;;;;9.55;2.75;;;;;;;;;;4983714;28;20364;-81
2023/10/28 13:31:30;;;;;;;7.72;2.38;;;;;;;;;;4983744;28;20126;-81
2023/10/28 13:34:00;;;;;;;9.35;2.90;;;;;;;;;;4975172;28;20039;-81
2023/10/28 13:36:27;;;;;;;7.60;2.42;;;;;;;;;;4992202;28;20051;-81
2023/10/28 13:38:53;;;;;;;7.68;2.60;;;;;;;;;;4977903;28;20461;-81
2023/10/28 13:41:20;;;;;;;7.25;2.50;;;;;;;;;;4978176;28;20038;-81
2023/10/28 13:43:46;;;;;;;9.50;3.35;;;;;;;;;;4974526;28;20075;-82
2023/10/28 13:46:12;;;;;;;8.70;3.17;;;;;;;;;;4978013;28;20050;-81
2023/10/28 13:48:38;;;;;;;9.25;2.65;;;;;;;;;;4982781;28;20488;-81
2023/10/28 13:51:04;;;;;;;9.13;2.55;;;;;;;;;;4976831;28;20047;-81
2023/10/28 13:53:30;;;;;;;8.27;2.50;;;;;;;;;;4981378;28;20078;-81
2023/10/28 13:55:57;;;;;;;9.88;2.67;;;;;;;;;;4974917;28;20050;-81
2023/10/28 13:58:24;;;;;;;7.43;2.53;;;;;;;;;;4979144;28;20121;-81
2023/10/28 14:00:50;;;;;;;6.90;2.78;;;;;;;;;;4970714;28;20064;-81
2023/10/28 14:03:19;;;;;;;10.35;2.92;;;;;;;;;;4965863;29;20110;-81
2023/10/28 14:05:45;;;;;;;9.27;2.60;;;;;;;;;;4978073;28;20057;-81
2023/10/28 14:08:12;;;;;;;7.90;3.28;;;;;;;;;;4972687;28;20051;-81
2023/10/28 14:10:38;;;;;;;8.73;2.72;;;;;;;;;;4983817;28;20051;-81
2023/10/28 14:13:04;;;;;;;9.23;2.97;;;;;;;;;;4973387;28;20051;-81
2023/10/28 14:15:31;;;;;;;8.85;2.50;;;;;;;;;;4970953;28;20094;-81
2023/10/28 14:18:00;;;;;;;8.60;2.90;;;;;;;;;;4971009;28;20154;-81
2023/10/28 14:20:26;;;;;;;8.82;2.90;;;;;;;;;;4980406;28;20105;-81
2023/10/28 14:22:52;;;;;;;8.10;2.67;;;;;;;;;;4984087;28;20043;-81
2023/10/28 14:25:18;;;;;;;9.90;2.88;;;;;;;;;;4984975;28;20178;-81